Time;durP1;ratioP1;P1;durP2;ratioP2;P2;SDS_P1;SDS_P2;PMS_P1;PMS_P2;Temp;Humidity;BMP_temperature;BMP_pressure;BME280_temperature;BME280_humidity;BME280_pressure;Samples;Min_cycle;Max_cycle;Signal;HPM_P1;HPM_P2
2022/01/21 00:01:04;;;;;;;6.47;2.25;;;;;;;;;;5005739;28;20030;-69
2022/01/21 00:03:29;;;;;;;11.25;2.67;;;;;;;;;;5008640;28;20100;-69
2022/01/21 00:05:55;;;;;;;14.60;2.75;;;;;;;;;;5006933;28;20038;-68
2022/01/21 00:08:20;;;;;;;10.10;2.85;;;;;;;;;;5003631;28;20061;-69
2022/01/21 00:10:45;;;;;;;10.73;3.10;;;;;;;;;;5002840;28;20050;-69
2022/01/21 00:13:19;;;;;;;7.88;3.60;;;;;;;;;;5008338;28;20457;-69
2022/01/21 00:15:44;;;;;;;12.77;3.28;;;;;;;;;;5008309;28;20069;-69
2022/01/21 00:18:11;;;;;;;8.68;3.20;;;;;;;;;;5008264;28;20034;-69
2022/01/21 00:31:31;;;;;;;11.27;2.35;;;;;;;;;;5002231;28;20769;-68
2022/01/21 00:33:57;;;;;;;16.42;3.33;;;;;;;;;;5003877;28;20022;-68
2022/01/21 00:36:22;;;;;;;14.05;3.30;;;;;;;;;;5002959;28;20447;-69
2022/01/21 00:38:48;;;;;;;12.85;3.13;;;;;;;;;;5004226;28;20049;-69
2022/01/21 00:41:18;;;;;;;15.25;3.83;;;;;;;;;;5007610;28;20092;-68
2022/01/21 00:43:44;;;;;;;11.52;3.78;;;;;;;;;;5007861;28;20022;-69
2022/01/21 00:46:12;;;;;;;16.33;3.35;;;;;;;;;;5005104;28;20033;-69
2022/01/21 00:48:38;;;;;;;11.00;3.13;;;;;;;;;;5002979;28;20041;-69
2022/01/21 00:51:03;;;;;;;10.32;3.00;;;;;;;;;;4985444;28;20427;-69
2022/01/21 00:53:28;;;;;;;9.75;3.25;;;;;;;;;;5004152;28;20041;-69
2022/01/21 00:55:54;;;;;;;10.63;3.72;;;;;;;;;;5000118;28;20038;-69
2022/01/21 00:58:19;;;;;;;11.05;4.25;;;;;;;;;;5003581;28;20061;-69
2022/01/21 01:00:45;;;;;;;13.52;4.82;;;;;;;;;;5007445;28;20087;-69
2022/01/21 01:03:12;;;;;;;11.35;3.80;;;;;;;;;;5005690;28;20404;-69
2022/01/21 01:05:38;;;;;;;13.15;3.70;;;;;;;;;;5007965;28;20053;-69
2022/01/21 01:08:04;;;;;;;9.48;3.38;;;;;;;;;;4985501;28;20030;-68
2022/01/21 01:10:44;;;;;;;9.15;2.67;;;;;;;;;;5003993;28;20041;-68
2022/01/21 01:21:22;;;;;;;8.73;3.13;;;;;;;;;;5000061;28;20124;-68
2022/01/21 01:29:17;;;;;;;7.47;2.35;;;;;;;;;;5003539;28;20117;-69
2022/01/21 01:31:42;;;;;;;13.18;3.20;;;;;;;;;;5006817;28;20116;-68
2022/01/21 01:34:07;;;;;;;11.55;2.85;;;;;;;;;;5002758;28;20117;-68
2022/01/21 01:36:33;;;;;;;8.52;3.22;;;;;;;;;;4986247;28;20038;-69
2022/01/21 01:41:36;;;;;;;11.40;2.78;;;;;;;;;;5001681;28;20041;-68
2022/01/21 01:49:40;;;;;;;5.80;2.63;;;;;;;;;;5007138;28;20029;-69
2022/01/21 01:52:11;;;;;;;8.98;2.88;;;;;;;;;;5007222;28;20017;-69
2022/01/21 01:54:41;;;;;;;12.48;2.65;;;;;;;;;;5007356;28;20087;-69
2022/01/21 01:57:07;;;;;;;7.38;2.05;;;;;;;;;;4990332;28;20033;-69
2022/01/21 01:59:32;;;;;;;12.88;3.05;;;;;;;;;;4994451;28;20038;-68
2022/01/21 02:02:01;;;;;;;9.10;2.67;;;;;;;;;;4987194;28;20034;-68
2022/01/21 02:04:28;;;;;;;9.60;3.10;;;;;;;;;;5000863;28;20646;-68
2022/01/21 02:06:53;;;;;;;7.60;2.20;;;;;;;;;;5008388;28;20034;-69
2022/01/21 02:09:19;;;;;;;8.35;2.75;;;;;;;;;;5011366;28;20041;-69
2022/01/21 02:11:45;;;;;;;7.50;2.67;;;;;;;;;;4997270;28;20038;-69
2022/01/21 02:14:15;;;;;;;10.07;3.17;;;;;;;;;;4981091;28;20043;-68
2022/01/21 02:17:08;;;;;;;15.75;3.35;;;;;;;;;;4980726;28;20041;-68
2022/01/21 02:22:16;;;;;;;7.10;2.70;;;;;;;;;;4982921;28;20104;-68
2022/01/21 02:24:55;;;;;;;11.75;3.08;;;;;;;;;;4987135;28;20033;-69
2022/01/21 02:27:21;;;;;;;17.30;2.85;;;;;;;;;;4987689;28;20065;-69
2022/01/21 02:29:52;;;;;;;8.98;2.72;;;;;;;;;;4987204;28;20169;-69
2022/01/21 02:32:19;;;;;;;10.38;3.05;;;;;;;;;;4987989;28;20747;-69
2022/01/21 02:34:46;;;;;;;20.95;2.95;;;;;;;;;;4992889;28;20051;-69
2022/01/21 02:37:16;;;;;;;6.25;2.67;;;;;;;;;;4996845;28;20018;-69
2022/01/21 02:39:41;;;;;;;10.32;3.28;;;;;;;;;;4983207;28;20073;-69
2022/01/21 02:42:07;;;;;;;12.52;3.50;;;;;;;;;;4986404;28;20069;-69
2022/01/21 02:44:32;;;;;;;13.38;4.25;;;;;;;;;;4987417;28;20038;-69
2022/01/21 02:47:01;;;;;;;13.10;4.55;;;;;;;;;;4987655;28;20551;-69
2022/01/21 02:49:26;;;;;;;16.40;4.47;;;;;;;;;;4987154;28;20022;-69
2022/01/21 02:51:53;;;;;;;17.08;5.40;;;;;;;;;;4988342;28;20044;-69
2022/01/21 02:54:18;;;;;;;11.90;5.05;;;;;;;;;;4982959;28;20407;-69
2022/01/21 02:56:44;;;;;;;13.18;4.53;;;;;;;;;;4979396;28;20038;-69
2022/01/21 02:59:10;;;;;;;12.40;5.28;;;;;;;;;;4980358;28;20041;-69
2022/01/21 03:01:37;;;;;;;19.70;5.65;;;;;;;;;;4981572;28;20034;-69
2022/01/21 03:04:04;;;;;;;11.70;4.85;;;;;;;;;;4981100;28;20018;-69
2022/01/21 03:06:30;;;;;;;13.88;5.00;;;;;;;;;;4964835;28;20039;-69
2022/01/21 03:08:57;;;;;;;14.05;4.70;;;;;;;;;;4980218;28;20471;-69
2022/01/21 03:11:24;;;;;;;19.95;4.45;;;;;;;;;;4983702;28;20047;-68
2022/01/21 03:13:50;;;;;;;20.58;5.30;;;;;;;;;;4969750;28;20051;-69
2022/01/21 03:16:16;;;;;;;16.83;5.15;;;;;;;;;;4972296;28;20042;-69
2022/01/21 03:18:42;;;;;;;19.48;4.70;;;;;;;;;;4970115;28;20041;-69
2022/01/21 03:21:10;;;;;;;12.30;4.55;;;;;;;;;;4970263;28;20057;-69
2022/01/21 03:23:35;;;;;;;16.08;4.68;;;;;;;;;;4973019;28;20547;-69
2022/01/21 03:26:01;;;;;;;9.30;4.00;;;;;;;;;;4975672;28;20051;-69
2022/01/21 03:28:26;;;;;;;9.85;4.00;;;;;;;;;;4971660;28;20023;-68
2022/01/21 03:30:55;;;;;;;17.77;4.60;;;;;;;;;;4966251;28;20075;-69
2022/01/21 03:33:21;;;;;;;14.18;4.05;;;;;;;;;;4965904;28;20636;-68
2022/01/21 03:35:47;;;;;;;10.68;3.38;;;;;;;;;;4967860;28;20046;-69
2022/01/21 03:38:12;;;;;;;15.27;4.15;;;;;;;;;;4969626;28;20038;-69
2022/01/21 03:40:37;;;;;;;12.23;4.68;;;;;;;;;;4970238;28;20034;-68
2022/01/21 03:43:03;;;;;;;10.85;4.15;;;;;;;;;;4968182;28;20022;-69
2022/01/21 03:45:28;;;;;;;12.88;4.65;;;;;;;;;;4980257;28;20033;-68
2022/01/21 03:47:53;;;;;;;14.85;5.22;;;;;;;;;;4969100;28;20073;-69
2022/01/21 03:52:44;;;;;;;18.58;5.05;;;;;;;;;;4971123;28;20058;-69
2022/01/21 03:55:10;;;;;;;10.60;4.65;;;;;;;;;;4971677;28;20038;-69
2022/01/21 03:57:35;;;;;;;15.77;4.50;;;;;;;;;;4991223;28;20076;-69
2022/01/21 04:00:04;;;;;;;10.98;4.18;;;;;;;;;;4995464;28;20129;-69
2022/01/21 04:02:29;;;;;;;11.00;4.60;;;;;;;;;;4984295;28;20043;-69
2022/01/21 04:04:55;;;;;;;11.60;4.40;;;;;;;;;;4990727;28;20047;-69
2022/01/21 04:07:20;;;;;;;13.45;4.45;;;;;;;;;;4985405;28;20050;-68
2022/01/21 04:09:47;;;;;;;11.70;5.20;;;;;;;;;;4987128;28;20046;-69
2022/01/21 04:12:12;;;;;;;18.80;4.82;;;;;;;;;;4983797;28;20046;-69
2022/01/21 04:14:38;;;;;;;18.42;4.25;;;;;;;;;;4992097;28;20089;-69
2022/01/21 04:17:03;;;;;;;16.15;5.28;;;;;;;;;;4989952;28;20108;-69
2022/01/21 04:19:29;;;;;;;19.58;5.35;;;;;;;;;;4984168;28;20073;-68
2022/01/21 04:21:54;;;;;;;22.80;6.35;;;;;;;;;;4980940;28;20415;-69
2022/01/21 04:24:19;;;;;;;17.90;5.93;;;;;;;;;;4982132;28;20522;-69
2022/01/21 04:26:45;;;;;;;14.23;6.18;;;;;;;;;;4998021;28;20058;-69
2022/01/21 04:29:10;;;;;;;15.65;5.30;;;;;;;;;;4984761;28;20042;-69
2022/01/21 04:31:35;;;;;;;12.35;5.00;;;;;;;;;;4984097;28;20026;-68
2022/01/21 04:34:01;;;;;;;20.27;5.07;;;;;;;;;;4967910;28;20415;-69
2022/01/21 04:36:26;;;;;;;12.00;5.30;;;;;;;;;;4982914;28;20130;-69
2022/01/21 04:38:54;;;;;;;12.38;4.75;;;;;;;;;;4989308;28;20133;-68
2022/01/21 04:47:11;;;;;;;14.80;5.55;;;;;;;;;;4971630;28;20042;-68
2022/01/21 04:49:35;;;;;;;16.95;6.20;;;;;;;;;;4983641;28;20036;-68
2022/01/21 04:52:04;;;;;;;16.08;6.65;;;;;;;;;;4983335;28;20113;-69
2022/01/21 04:54:31;;;;;;;17.42;6.35;;;;;;;;;;4977983;28;20039;-69
2022/01/21 04:56:56;;;;;;;17.77;7.00;;;;;;;;;;4989293;28;20046;-69
2022/01/21 04:59:22;;;;;;;21.60;6.38;;;;;;;;;;4989618;28;20034;-69
2022/01/21 05:01:47;;;;;;;21.95;6.38;;;;;;;;;;4988027;28;20052;-69
2022/01/21 05:04:12;;;;;;;21.75;6.18;;;;;;;;;;5002938;28;20105;-68
2022/01/21 05:06:38;;;;;;;16.80;6.90;;;;;;;;;;5004810;28;20041;-68
2022/01/21 05:09:05;;;;;;;17.40;6.43;;;;;;;;;;5010555;28;20133;-69
2022/01/21 05:11:35;;;;;;;17.45;6.00;;;;;;;;;;5017556;28;20493;-69
2022/01/21 05:14:12;;;;;;;15.07;6.05;;;;;;;;;;5008191;28;20038;-69
2022/01/21 05:16:40;;;;;;;18.88;5.93;;;;;;;;;;5008431;28;20295;-69
2022/01/21 05:19:14;;;;;;;17.20;6.80;;;;;;;;;;5009223;28;20470;-69
2022/01/21 05:21:39;;;;;;;13.15;5.75;;;;;;;;;;5008206;28;20488;-69
2022/01/21 05:24:05;;;;;;;16.35;6.18;;;;;;;;;;5002086;28;20129;-69
2022/01/21 05:26:36;;;;;;;17.20;6.35;;;;;;;;;;5004101;28;20038;-68
2022/01/21 05:29:04;;;;;;;18.08;6.30;;;;;;;;;;5003572;28;20038;-69
2022/01/21 05:31:29;;;;;;;21.17;6.32;;;;;;;;;;5003234;28;20033;-68
2022/01/21 05:33:55;;;;;;;17.75;6.22;;;;;;;;;;5009678;28;20071;-69
2022/01/21 05:36:20;;;;;;;17.77;7.13;;;;;;;;;;5007323;28;20034;-69
2022/01/21 05:38:46;;;;;;;16.33;6.57;;;;;;;;;;5003876;28;20121;-69
2022/01/21 05:41:12;;;;;;;15.57;6.25;;;;;;;;;;5008974;28;20038;-69
2022/01/21 05:43:44;;;;;;;13.98;6.13;;;;;;;;;;5006368;28;20026;-68
2022/01/21 05:46:23;;;;;;;14.63;5.55;;;;;;;;;;5002099;28;20026;-69
2022/01/21 05:48:49;;;;;;;15.00;6.50;;;;;;;;;;5002529;28;20567;-68
2022/01/21 05:51:16;;;;;;;15.18;6.75;;;;;;;;;;4992826;28;20117;-69
2022/01/21 05:53:41;;;;;;;13.50;6.80;;;;;;;;;;4987855;28;20069;-69
2022/01/21 05:56:07;;;;;;;18.10;6.35;;;;;;;;;;4988608;28;20038;-69
2022/01/21 05:58:32;;;;;;;19.00;7.43;;;;;;;;;;4995877;28;20424;-68
2022/01/21 06:00:58;;;;;;;23.02;6.50;;;;;;;;;;4982581;28;20101;-69
2022/01/21 06:03:23;;;;;;;15.60;5.35;;;;;;;;;;4980351;28;20417;-69
2022/01/21 06:05:49;;;;;;;18.35;6.68;;;;;;;;;;4981752;28;20085;-68
2022/01/21 06:08:15;;;;;;;14.80;6.10;;;;;;;;;;4985969;28;20038;-68
2022/01/21 06:10:40;;;;;;;19.33;6.15;;;;;;;;;;5003682;28;20109;-69
2022/01/21 06:13:06;;;;;;;15.90;5.38;;;;;;;;;;5008514;28;20018;-69
2022/01/21 06:15:31;;;;;;;13.93;5.90;;;;;;;;;;4981046;28;20038;-68
2022/01/21 06:17:56;;;;;;;12.40;5.35;;;;;;;;;;4981001;28;20053;-69
2022/01/21 06:20:22;;;;;;;16.73;6.90;;;;;;;;;;4983015;28;20142;-69
2022/01/21 06:22:47;;;;;;;13.23;6.00;;;;;;;;;;4983895;28;20030;-69
2022/01/21 06:25:12;;;;;;;14.77;6.05;;;;;;;;;;4987649;28;20037;-69
2022/01/21 06:27:39;;;;;;;12.68;6.13;;;;;;;;;;5002990;28;20121;-69
2022/01/21 06:30:07;;;;;;;12.02;5.57;;;;;;;;;;4988308;28;20040;-69
2022/01/21 06:32:32;;;;;;;17.33;6.68;;;;;;;;;;4980484;28;20097;-69
2022/01/21 06:34:57;;;;;;;17.45;6.35;;;;;;;;;;4987363;28;20061;-69
2022/01/21 06:37:23;;;;;;;17.60;6.07;;;;;;;;;;4988116;28;20031;-69
2022/01/21 06:39:48;;;;;;;11.57;5.72;;;;;;;;;;4989158;28;20053;-68
2022/01/21 06:42:14;;;;;;;12.23;6.22;;;;;;;;;;4978753;28;20085;-69
2022/01/21 06:44:39;;;;;;;19.25;7.13;;;;;;;;;;4985083;28;20516;-69
2022/01/21 06:47:05;;;;;;;19.65;7.07;;;;;;;;;;4987448;28;20046;-69
2022/01/21 06:49:30;;;;;;;13.13;6.63;;;;;;;;;;4980264;28;20872;-69
2022/01/21 06:51:56;;;;;;;19.30;7.70;;;;;;;;;;4994888;28;20073;-68
2022/01/21 06:54:21;;;;;;;19.80;6.13;;;;;;;;;;4984715;28;20045;-69
2022/01/21 06:56:46;;;;;;;17.77;5.55;;;;;;;;;;4984080;28;20532;-68
2022/01/21 06:59:12;;;;;;;19.70;6.38;;;;;;;;;;4982734;28;20067;-69
2022/01/21 07:01:37;;;;;;;22.52;6.93;;;;;;;;;;4971329;28;20034;-69
2022/01/21 07:04:03;;;;;;;14.95;6.70;;;;;;;;;;4975795;28;20058;-68
2022/01/21 07:06:28;;;;;;;17.02;6.68;;;;;;;;;;4977948;28;20129;-68
2022/01/21 07:08:54;;;;;;;15.27;6.55;;;;;;;;;;4980266;28;20512;-69
2022/01/21 07:11:19;;;;;;;12.38;5.63;;;;;;;;;;4977340;28;20394;-68
2022/01/21 07:13:44;;;;;;;12.50;5.97;;;;;;;;;;4977383;28;20057;-68
2022/01/21 07:16:10;;;;;;;15.63;6.65;;;;;;;;;;4983765;28;20676;-69
2022/01/21 07:18:35;;;;;;;14.20;6.47;;;;;;;;;;4985585;28;20034;-70
2022/01/21 07:21:00;;;;;;;15.15;6.28;;;;;;;;;;4984647;28;20038;-68
2022/01/21 07:23:26;;;;;;;16.45;5.63;;;;;;;;;;4991336;28;20035;-68
2022/01/21 07:25:51;;;;;;;15.75;6.22;;;;;;;;;;4982204;28;20049;-68
2022/01/21 07:28:17;;;;;;;16.25;6.40;;;;;;;;;;4988644;28;20030;-69
2022/01/21 07:30:42;;;;;;;25.33;6.70;;;;;;;;;;4987310;28;20042;-68
2022/01/21 07:33:08;;;;;;;18.65;7.05;;;;;;;;;;4985836;28;20045;-70
2022/01/21 07:35:34;;;;;;;17.83;5.63;;;;;;;;;;4983641;28;20035;-69
2022/01/21 07:37:59;;;;;;;14.98;5.88;;;;;;;;;;4978970;28;20133;-67
2022/01/21 07:40:25;;;;;;;13.38;5.68;;;;;;;;;;4978133;28;20022;-69
2022/01/21 07:42:50;;;;;;;17.60;6.82;;;;;;;;;;4980147;28;20129;-69
2022/01/21 07:45:16;;;;;;;19.70;5.78;;;;;;;;;;4980090;28;20045;-69
2022/01/21 07:47:41;;;;;;;20.77;7.30;;;;;;;;;;4984526;28;20046;-69
2022/01/21 07:50:07;;;;;;;18.45;7.28;;;;;;;;;;4981124;28;20057;-70
2022/01/21 07:52:33;;;;;;;17.10;7.03;;;;;;;;;;4977659;28;20492;-69
2022/01/21 07:54:58;;;;;;;17.77;7.85;;;;;;;;;;4984633;28;20058;-69
2022/01/21 07:57:23;;;;;;;15.63;6.45;;;;;;;;;;4984987;28;20043;-69
2022/01/21 07:59:49;;;;;;;28.83;7.28;;;;;;;;;;4986786;28;20042;-69
2022/01/21 08:02:14;;;;;;;22.38;8.18;;;;;;;;;;4985025;28;20038;-70
2022/01/21 08:04:40;;;;;;;17.15;7.07;;;;;;;;;;4987315;28;20049;-69
2022/01/21 08:07:05;;;;;;;24.23;7.95;;;;;;;;;;4987167;28;20062;-70
2022/01/21 08:09:31;;;;;;;19.85;8.05;;;;;;;;;;4988677;28;20088;-70
2022/01/21 08:11:56;;;;;;;25.77;8.82;;;;;;;;;;4988573;28;20038;-70
2022/01/21 08:14:22;;;;;;;17.30;7.32;;;;;;;;;;4988866;28;20038;-69
2022/01/21 08:16:48;;;;;;;20.80;7.40;;;;;;;;;;4988033;28;20120;-67
2022/01/21 08:19:14;;;;;;;17.98;7.63;;;;;;;;;;4987051;28;20567;-68
2022/01/21 08:21:42;;;;;;;21.13;7.78;;;;;;;;;;4980916;28;20042;-69
2022/01/21 08:24:08;;;;;;;17.10;6.97;;;;;;;;;;4981625;28;20072;-69
2022/01/21 08:26:33;;;;;;;15.75;6.70;;;;;;;;;;4988176;28;20246;-68
2022/01/21 08:28:59;;;;;;;17.75;8.63;;;;;;;;;;4986211;28;20093;-69
2022/01/21 08:31:25;;;;;;;24.98;9.30;;;;;;;;;;4983826;28;20057;-69
2022/01/21 08:33:50;;;;;;;18.55;8.35;;;;;;;;;;4988835;28;20038;-69
2022/01/21 08:36:24;;;;;;;26.85;9.38;;;;;;;;;;4983778;28;20046;-70
2022/01/21 08:38:49;;;;;;;;;;;;;;;;;;4987163;28;20043;-67
2022/01/21 08:41:15;;;;;;;18.30;7.82;;;;;;;;;;4986184;28;19977;-69
2022/01/21 08:43:40;;;;;;;20.73;8.63;;;;;;;;;;4982119;28;20026;-68
2022/01/21 08:46:06;;;;;;;16.55;7.95;;;;;;;;;;4983338;28;20101;-69
2022/01/21 08:48:32;;;;;;;19.40;8.88;;;;;;;;;;4987984;28;20041;-69
2022/01/21 08:51:00;;;;;;;18.67;8.45;;;;;;;;;;4987555;28;20046;-69
2022/01/21 08:53:38;;;;;;;23.40;9.38;;;;;;;;;;4987176;28;20129;-69
2022/01/21 08:56:06;;;;;;;18.77;9.63;;;;;;;;;;4988341;28;20101;-69
2022/01/21 08:58:31;;;;;;;22.88;9.98;;;;;;;;;;4987401;28;20139;-69
2022/01/21 09:00:57;;;;;;;27.02;9.00;;;;;;;;;;4981338;28;20524;-68
2022/01/21 09:03:23;;;;;;;21.35;10.15;;;;;;;;;;4980851;28;20030;-68
2022/01/21 09:05:49;;;;;;;29.70;10.20;;;;;;;;;;4986730;28;20547;-69
2022/01/21 09:08:16;;;;;;;24.83;10.15;;;;;;;;;;5000581;28;20424;-70
2022/01/21 09:10:41;;;;;;;30.08;10.52;;;;;;;;;;4987679;28;20022;-68
2022/01/21 09:13:06;;;;;;;20.00;8.98;;;;;;;;;;4982980;28;20096;-71
2022/01/21 09:15:34;;;;;;;22.25;8.93;;;;;;;;;;4983290;28;20475;-71
2022/01/21 09:18:04;;;;;;;23.48;9.98;;;;;;;;;;4984727;28;20057;-72
2022/01/21 09:20:29;;;;;;;23.15;8.98;;;;;;;;;;4985250;28;20061;-71
2022/01/21 09:22:54;;;;;;;20.80;9.23;;;;;;;;;;4980857;28;20069;-70
2022/01/21 09:25:20;;;;;;;24.83;10.05;;;;;;;;;;4984308;28;20117;-70
2022/01/21 09:27:45;;;;;;;22.08;9.50;;;;;;;;;;4981836;28;20129;-71
2022/01/21 09:30:11;;;;;;;20.40;9.05;;;;;;;;;;4987152;28;20517;-71
2022/01/21 09:32:36;;;;;;;27.58;9.88;;;;;;;;;;4986390;28;20129;-71
2022/01/21 09:35:03;;;;;;;24.05;10.07;;;;;;;;;;4982747;28;20058;-70
2022/01/21 09:37:28;;;;;;;20.08;9.15;;;;;;;;;;4983096;28;20912;-71
2022/01/21 09:39:54;;;;;;;28.48;11.60;;;;;;;;;;4982321;28;20030;-71
2022/01/21 09:42:21;;;;;;;23.95;11.43;;;;;;;;;;4985411;28;20050;-71
2022/01/21 09:44:46;;;;;;;27.30;10.43;;;;;;;;;;4983621;28;20062;-71
2022/01/21 09:47:15;;;;;;;28.38;10.63;;;;;;;;;;4984059;28;20483;-71
2022/01/21 09:49:43;;;;;;;26.50;10.65;;;;;;;;;;4981048;28;20622;-70
2022/01/21 09:52:11;;;;;;;126.10;41.28;;;;;;;;;;4985652;28;20072;-73
2022/01/21 09:54:38;;;;;;;21.58;9.02;;;;;;;;;;4986901;28;20162;-70
2022/01/21 09:57:06;;;;;;;28.08;12.02;;;;;;;;;;4986676;28;20538;-70
2022/01/21 09:59:35;;;;;;;19.83;8.63;;;;;;;;;;5000750;28;20046;-70
2022/01/21 10:02:04;;;;;;;19.08;9.38;;;;;;;;;;4991167;28;20138;-69
2022/01/21 10:04:36;;;;;;;22.95;10.18;;;;;;;;;;4980945;28;20038;-68
2022/01/21 10:07:03;;;;;;;18.13;8.10;;;;;;;;;;5004228;28;20096;-69
2022/01/21 10:09:31;;;;;;;23.73;9.13;;;;;;;;;;5004944;28;20073;-69
2022/01/21 10:11:58;;;;;;;23.55;10.80;;;;;;;;;;4993749;28;20046;-69
2022/01/21 10:14:26;;;;;;;19.15;9.05;;;;;;;;;;4985929;28;20066;-69
2022/01/21 10:16:53;;;;;;;23.90;9.90;;;;;;;;;;4982938;28;20686;-69
2022/01/21 10:19:27;;;;;;;25.13;10.70;;;;;;;;;;4983595;28;20132;-70
2022/01/21 10:22:01;;;;;;;20.92;8.52;;;;;;;;;;4985637;28;20049;-69
2022/01/21 10:24:28;;;;;;;23.73;9.95;;;;;;;;;;4986303;28;20714;-69
2022/01/21 10:26:55;;;;;;;27.50;10.50;;;;;;;;;;4986674;28;20069;-69
2022/01/21 10:29:22;;;;;;;24.27;9.98;;;;;;;;;;4985604;28;20039;-70
2022/01/21 10:32:07;;;;;;;24.48;10.15;;;;;;;;;;4986417;28;20056;-68
2022/01/21 10:34:44;;;;;;;19.67;8.50;;;;;;;;;;4984259;28;20058;-69
2022/01/21 10:37:24;;;;;;;22.63;7.18;;;;;;;;;;4985125;28;20036;-70
2022/01/21 10:40:05;;;;;;;25.42;7.88;;;;;;;;;;4983970;28;20121;-69
2022/01/21 10:42:31;;;;;;;18.23;7.03;;;;;;;;;;4985546;28;20038;-69
2022/01/21 10:44:58;;;;;;;24.20;8.60;;;;;;;;;;4981255;28;20045;-70
2022/01/21 10:47:32;;;;;;;19.10;6.80;;;;;;;;;;4981461;28;20065;-68
2022/01/21 10:50:08;;;;;;;25.52;10.25;;;;;;;;;;4983621;28;20516;-70
2022/01/21 10:52:49;;;;;;;15.82;6.55;;;;;;;;;;4985525;28;20034;-71
2022/01/21 10:55:34;;;;;;;28.58;9.02;;;;;;;;;;4984444;28;20173;-70
2022/01/21 10:58:18;;;;;;;19.63;6.30;;;;;;;;;;4984561;28;20051;-71
2022/01/21 11:00:59;;;;;;;19.45;7.90;;;;;;;;;;4980103;28;20050;-69
2022/01/21 11:03:26;;;;;;;24.40;9.45;;;;;;;;;;4979625;28;20074;-70
2022/01/21 11:06:15;;;;;;;25.95;11.10;;;;;;;;;;4979598;28;20103;-71
2022/01/21 11:08:41;;;;;;;24.05;9.70;;;;;;;;;;4982282;28;20034;-71
2022/01/21 11:11:06;;;;;;;18.55;7.80;;;;;;;;;;4984449;28;20050;-71
2022/01/21 11:13:36;;;;;;;15.55;8.18;;;;;;;;;;4980602;28;20416;-71
2022/01/21 11:16:23;;;;;;;15.63;6.78;;;;;;;;;;4985104;28;20030;-72
2022/01/21 11:19:12;;;;;;;17.95;6.88;;;;;;;;;;4985719;28;20042;-71
2022/01/21 11:21:42;;;;;;;22.33;8.43;;;;;;;;;;4977826;28;20035;-71
2022/01/21 11:24:09;;;;;;;14.15;6.20;;;;;;;;;;4983239;28;20034;-70
2022/01/21 11:26:35;;;;;;;10.98;5.45;;;;;;;;;;4991011;28;20116;-70
2022/01/21 11:29:03;;;;;;;21.10;9.23;;;;;;;;;;4984903;28;20408;-69
2022/01/21 11:31:29;;;;;;;23.35;8.80;;;;;;;;;;4978044;28;20092;-69
2022/01/21 11:33:55;;;;;;;21.20;6.70;;;;;;;;;;4978730;28;20022;-70
2022/01/21 11:36:20;;;;;;;17.55;8.15;;;;;;;;;;4985197;28;20194;-69
2022/01/21 11:38:48;;;;;;;13.98;5.97;;;;;;;;;;4982451;28;20586;-69
2022/01/21 11:41:14;;;;;;;9.93;4.45;;;;;;;;;;4984368;28;20039;-70
2022/01/21 11:43:48;;;;;;;14.07;5.43;;;;;;;;;;4988883;28;20020;-70
2022/01/21 11:48:52;;;;;;;12.93;4.65;;;;;;;;;;4983724;28;19936;-68
2022/01/21 11:51:24;;;;;;;9.48;4.25;;;;;;;;;;4979875;28;20026;-72
2022/01/21 11:54:00;;;;;;;15.10;4.60;;;;;;;;;;4988060;28;20038;-69
2022/01/21 11:56:29;;;;;;;11.15;4.43;;;;;;;;;;4985487;28;20030;-69
2022/01/21 11:59:08;;;;;;;18.70;6.70;;;;;;;;;;4995910;28;21298;-69
2022/01/21 12:01:40;;;;;;;15.43;4.82;;;;;;;;;;4995639;28;20038;-70
2022/01/21 12:04:06;;;;;;;8.95;4.95;;;;;;;;;;4984098;28;20101;-69
2022/01/21 12:06:35;;;;;;;13.18;6.20;;;;;;;;;;4981361;28;20105;-70
2022/01/21 12:09:04;;;;;;;15.57;5.72;;;;;;;;;;4983332;28;20038;-69
2022/01/21 12:11:34;;;;;;;17.83;6.47;;;;;;;;;;4980689;28;20668;-69
2022/01/21 12:14:03;;;;;;;13.15;5.32;;;;;;;;;;4984254;28;20042;-70
2022/01/21 12:17:11;;;;;;;15.13;5.95;;;;;;;;;;4987937;28;20444;-70
2022/01/21 12:19:39;;;;;;;18.58;6.88;;;;;;;;;;4982969;28;20041;-70
2022/01/21 12:22:18;;;;;;;15.50;7.00;;;;;;;;;;4983740;28;20026;-69
2022/01/21 12:24:51;;;;;;;19.67;7.00;;;;;;;;;;4983599;28;20185;-69
2022/01/21 12:27:17;;;;;;;21.63;7.43;;;;;;;;;;4981747;28;20042;-70
2022/01/21 12:29:42;;;;;;;16.20;6.75;;;;;;;;;;4984433;28;20030;-69
2022/01/21 12:32:21;;;;;;;17.02;6.40;;;;;;;;;;4987414;28;20041;-68
2022/01/21 12:35:02;;;;;;;16.20;7.07;;;;;;;;;;4982017;28;20524;-70
2022/01/21 12:37:49;;;;;;;23.70;7.85;;;;;;;;;;4981777;28;20023;-68
2022/01/21 12:40:32;;;;;;;20.90;8.20;;;;;;;;;;4981711;28;20030;-70
2022/01/21 12:42:58;;;;;;;25.30;8.52;;;;;;;;;;4980551;28;20046;-70
2022/01/21 12:45:24;;;;;;;22.05;7.97;;;;;;;;;;4981923;28;20051;-69
2022/01/21 12:47:49;;;;;;;15.48;6.95;;;;;;;;;;4978929;28;20555;-70
2022/01/21 12:53:08;;;;;;;10.05;3.65;;;;;;;;;;4979577;28;20031;-70
2022/01/21 12:55:55;;;;;;;12.10;5.45;;;;;;;;;;4975401;28;20030;-70
2022/01/21 12:58:23;;;;;;;14.38;4.75;;;;;;;;;;4988148;28;20018;-69
2022/01/21 13:00:54;;;;;;;13.93;5.32;;;;;;;;;;4992566;28;20030;-68
2022/01/21 13:03:34;;;;;;;8.80;4.45;;;;;;;;;;4995657;28;20035;-68
2022/01/21 13:06:15;;;;;;;12.98;4.88;;;;;;;;;;4983923;28;20558;-68
2022/01/21 13:08:52;;;;;;;6.50;4.07;;;;;;;;;;4979455;28;20068;-68
2022/01/21 13:11:23;;;;;;;13.40;4.15;;;;;;;;;;4981674;28;20042;-67
2022/01/21 13:17:01;;;;;;;13.02;5.30;;;;;;;;;;4980666;28;20116;-67
2022/01/21 13:19:27;;;;;;;11.13;4.38;;;;;;;;;;4982892;28;20412;-68
2022/01/21 13:21:53;;;;;;;7.80;3.45;;;;;;;;;;4974619;28;20548;-67
2022/01/21 13:24:38;;;;;;;10.18;4.47;;;;;;;;;;4986966;28;20034;-68
2022/01/21 13:27:04;;;;;;;9.55;3.80;;;;;;;;;;4986375;28;20038;-68
2022/01/21 13:29:32;;;;;;;14.35;4.95;;;;;;;;;;4982797;28;20069;-68
2022/01/21 13:32:00;;;;;;;9.73;3.88;;;;;;;;;;4979585;28;20552;-67
2022/01/21 13:34:27;;;;;;;10.30;3.75;;;;;;;;;;4978662;28;20026;-67
2022/01/21 13:36:58;;;;;;;13.02;3.45;;;;;;;;;;5000396;28;20042;-68
2022/01/21 13:39:29;;;;;;;7.43;4.18;;;;;;;;;;4989173;28;20042;-67
2022/01/21 13:42:10;;;;;;;11.65;4.07;;;;;;;;;;4971148;28;20035;-68
2022/01/21 13:44:44;;;;;;;12.68;4.68;;;;;;;;;;4985908;28;20050;-68
2022/01/21 13:47:31;;;;;;;12.10;4.68;;;;;;;;;;4986260;28;20129;-68
2022/01/21 13:49:59;;;;;;;11.13;3.85;;;;;;;;;;4983469;28;20038;-67
2022/01/21 13:52:48;;;;;;;12.85;3.50;;;;;;;;;;4976830;28;20034;-66
2022/01/21 13:55:26;;;;;;;15.50;4.40;;;;;;;;;;5002053;28;20056;-66
2022/01/21 13:57:52;;;;;;;13.68;5.43;;;;;;;;;;4979994;28;20073;-66
2022/01/21 14:00:30;;;;;;;14.63;5.05;;;;;;;;;;4989001;28;20117;-66
2022/01/21 14:03:18;;;;;;;11.07;4.88;;;;;;;;;;4984465;28;20089;-66
2022/01/21 14:06:10;;;;;;;9.70;3.72;;;;;;;;;;4957694;28;20110;-67
2022/01/21 14:08:37;;;;;;;11.85;4.65;;;;;;;;;;4942354;28;20663;-68
2022/01/21 14:11:27;;;;;;;7.85;3.13;;;;;;;;;;4941679;28;20054;-68
2022/01/21 14:13:59;;;;;;;10.75;4.40;;;;;;;;;;4942011;28;20138;-67
2022/01/21 14:16:36;;;;;;;12.15;3.80;;;;;;;;;;4943055;28;20030;-67
2022/01/21 14:19:04;;;;;;;11.60;3.88;;;;;;;;;;4964042;28;20137;-69
2022/01/21 14:21:32;;;;;;;14.93;4.78;;;;;;;;;;4961888;28;20049;-70
2022/01/21 14:24:08;;;;;;;12.63;4.18;;;;;;;;;;4962557;28;20042;-69
2022/01/21 14:26:40;;;;;;;10.75;3.90;;;;;;;;;;4966844;28;20150;-70
2022/01/21 14:29:06;;;;;;;8.82;3.75;;;;;;;;;;4978354;28;20625;-68
2022/01/21 14:31:45;;;;;;;6.47;2.33;;;;;;;;;;4966893;28;20481;-68
2022/01/21 14:34:11;;;;;;;10.85;3.90;;;;;;;;;;4966422;28;20114;-69
2022/01/21 14:36:37;;;;;;;10.00;3.55;;;;;;;;;;4978748;28;20520;-69
2022/01/21 14:39:11;;;;;;;13.93;3.95;;;;;;;;;;4963033;28;20226;-68
2022/01/21 14:41:43;;;;;;;10.70;3.42;;;;;;;;;;4961979;28;20047;-70
2022/01/21 14:44:11;;;;;;;15.15;3.85;;;;;;;;;;4962287;28;20504;-71
2022/01/21 14:46:37;;;;;;;11.40;3.65;;;;;;;;;;4959755;28;20026;-69
2022/01/21 14:49:05;;;;;;;7.00;2.88;;;;;;;;;;4962597;28;20042;-69
2022/01/21 14:52:33;;;;;;;10.02;4.00;;;;;;;;;;4960066;28;20729;-70
2022/01/21 14:54:52;;;;;;;12.63;3.92;;;;;;;;;;4960672;28;20042;-71
2022/01/21 14:57:28;;;;;;;13.23;3.53;;;;;;;;;;4961618;28;20038;-72
2022/01/21 14:59:55;;;;;;;15.27;4.80;;;;;;;;;;4959120;28;20050;-71
2022/01/21 15:02:35;;;;;;;12.10;3.50;;;;;;;;;;4957835;28;20126;-71
2022/01/21 15:05:02;;;;;;;11.95;3.67;;;;;;;;;;4971939;28;20165;-71
2022/01/21 15:07:29;;;;;;;12.13;3.95;;;;;;;;;;4996614;28;20478;-70
2022/01/21 15:10:01;;;;;;;12.77;4.20;;;;;;;;;;5006933;28;20034;-73
2022/01/21 15:15:30;;;;;;;10.98;3.60;;;;;;;;;;5006279;28;20052;-71
2022/01/21 15:17:55;;;;;;;12.82;4.28;;;;;;;;;;5010192;28;20130;-74
2022/01/21 15:20:22;;;;;;;10.23;3.95;;;;;;;;;;5010840;28;20136;-74
2022/01/21 15:22:48;;;;;;;13.35;4.10;;;;;;;;;;5011519;28;20037;-73
2022/01/21 15:25:13;;;;;;;13.52;4.00;;;;;;;;;;5009380;28;20029;-73
2022/01/21 15:27:41;;;;;;;10.43;3.70;;;;;;;;;;4985347;28;20041;-71
2022/01/21 15:30:07;;;;;;;11.30;3.97;;;;;;;;;;5004057;28;20067;-69
2022/01/21 15:32:34;;;;;;;9.55;3.80;;;;;;;;;;5003959;28;20531;-71
2022/01/21 15:34:59;;;;;;;13.82;3.92;;;;;;;;;;5000724;28;20049;-71